createdAt,value
2023-02-27T00:00:40.520Z,101462.73828125
2023-02-27T00:01:40.997Z,101461.87890625
2023-02-27T00:02:40.554Z,101462.390625
2023-02-27T00:03:40.636Z,101463.11328125
2023-02-27T00:04:40.610Z,101464.13671875
2023-02-27T00:05:40.629Z,101463.2265625
2023-02-27T00:06:40.917Z,101462.19921875
2023-02-27T00:07:42.949Z,101465.83984375
2023-02-27T00:08:40.589Z,101461.21484375
2023-02-27T00:09:40.526Z,101466.16796875
2023-02-27T00:10:40.496Z,101463.390625
2023-02-27T00:11:40.916Z,101461.7890625
2023-02-27T00:12:40.507Z,101461.6171875
2023-02-27T00:13:40.601Z,101466.6484375
2023-02-27T00:14:40.609Z,101463.0703125
2023-02-27T00:15:40.639Z,101465.06640625
2023-02-27T00:16:41.027Z,101461.62109375
2023-02-27T00:17:40.700Z,101463.296875
2023-02-27T00:18:42.870Z,101462.62109375
2023-02-27T00:19:40.617Z,101464.3203125
2023-02-27T00:20:40.558Z,101464.515625
2023-02-27T00:21:40.902Z,101464.265625
2023-02-27T00:22:40.588Z,101465.96484375
2023-02-27T00:23:40.511Z,101465.73046875
2023-02-27T00:24:40.614Z,101460.578125
2023-02-27T00:25:40.617Z,101462.1484375
2023-02-27T00:26:40.906Z,101458.91796875
2023-02-27T00:27:40.612Z,101460.484375
2023-02-27T00:28:40.594Z,101461.4765625
2023-02-27T00:29:42.927Z,101461.1953125
2023-02-27T00:30:40.670Z,101462.70703125
2023-02-27T00:31:40.638Z,101463.3125
2023-02-27T00:32:40.550Z,101463.87890625
2023-02-27T00:33:40.492Z,101464.50390625
2023-02-27T00:34:40.677Z,101461.984375
2023-02-27T00:35:40.598Z,101463.02734375
2023-02-27T00:36:40.605Z,101463.1640625
2023-02-27T00:37:40.551Z,101465.1484375
2023-02-27T00:38:40.502Z,101467.37109375
2023-02-27T00:39:40.602Z,101469.60546875
2023-02-27T00:40:42.965Z,101467.63671875
2023-02-27T00:41:40.924Z,101468.58984375
2023-02-27T00:42:40.498Z,101464.6484375
2023-02-27T00:43:40.502Z,101470.28125
2023-02-27T00:44:40.520Z,101464.1015625
2023-02-27T00:45:40.627Z,101461.5078125
2023-02-27T00:46:40.910Z,101473.3125
2023-02-27T00:47:40.696Z,101465.703125
2023-02-27T00:48:40.617Z,101464.6484375
2023-02-27T00:49:40.559Z,101467.65234375
2023-02-27T00:50:40.578Z,101467.984375
2023-02-27T00:51:42.872Z,101467.34765625
2023-02-27T00:52:40.637Z,101469.43359375
2023-02-27T00:53:40.608Z,101470.41796875
2023-02-27T00:54:40.579Z,101469.984375
2023-02-27T00:55:40.508Z,101470.03515625
2023-02-27T00:56:40.911Z,101470.30078125
2023-02-27T00:57:40.689Z,101469.5
2023-02-27T00:58:40.609Z,101467.7265625
2023-02-27T00:59:40.578Z,101472.53125
2023-02-27T01:00:41.504Z,101466.5390625
2023-02-27T01:01:40.909Z,101471.03125
2023-02-27T01:02:42.943Z,101467.41015625
2023-02-27T01:03:40.488Z,101468.203125
2023-02-27T01:04:40.570Z,101471.734375
2023-02-27T01:05:40.596Z,101468.99609375
2023-02-27T01:06:40.906Z,101469.125
2023-02-27T01:07:40.622Z,101468.71875
2023-02-27T01:08:40.594Z,101464.99609375
2023-02-27T01:09:40.531Z,101462.875
2023-02-27T01:10:40.635Z,101465.30859375
2023-02-27T01:11:40.914Z,101463.77734375
2023-02-27T01:12:40.500Z,101464.0625
2023-02-27T01:13:42.921Z,101463.96875
2023-02-27T01:14:40.625Z,101462.20703125
2023-02-27T01:15:40.489Z,101463.171875
2023-02-27T01:16:41.022Z,101460.2890625
2023-02-27T01:17:40.619Z,101461.81640625
2023-02-27T01:18:40.565Z,101465.390625
2023-02-27T01:19:40.629Z,101462.75390625
2023-02-27T01:20:40.471Z,101464.68359375
2023-02-27T01:21:40.961Z,101465.25390625
2023-02-27T01:22:40.621Z,101466.99609375
2023-02-27T01:23:40.594Z,101465.421875
2023-02-27T01:24:42.956Z,101468.6484375
2023-02-27T01:25:40.534Z,101467.73046875
2023-02-27T01:26:40.606Z,101462.88671875
2023-02-27T01:27:40.642Z,101469.296875
2023-02-27T01:28:40.568Z,101469.65625
2023-02-27T01:29:40.493Z,101470.41796875
2023-02-27T01:30:40.518Z,101469.98828125
2023-02-27T01:31:40.948Z,101472.109375
2023-02-27T01:32:40.527Z,101471.9296875
2023-02-27T01:33:40.621Z,101472.4765625
2023-02-27T01:34:40.640Z,101475.0078125
2023-02-27T01:35:42.983Z,101473
2023-02-27T01:36:40.952Z,101469.0703125
2023-02-27T01:37:40.490Z,101469.94140625
2023-02-27T01:38:40.523Z,101471.58984375
2023-02-27T01:39:40.605Z,101472.48046875
2023-02-27T01:40:40.609Z,101466.921875
2023-02-27T01:41:40.916Z,101466.32421875
2023-02-27T01:42:40.622Z,101471.05859375
2023-02-27T01:43:40.605Z,101471.54296875
2023-02-27T01:44:40.506Z,101468.92578125
2023-02-27T01:45:40.649Z,101465.98046875
2023-02-27T01:46:45.388Z,101467.0859375
2023-02-27T01:47:40.635Z,101468.07421875
2023-02-27T01:48:40.604Z,101464.84765625
2023-02-27T01:49:40.627Z,101472.41796875
2023-02-27T01:50:40.649Z,101466.06640625
2023-02-27T01:51:40.912Z,101470.015625
2023-02-27T01:52:40.646Z,101464.67578125
2023-02-27T01:53:40.518Z,101460.56640625
2023-02-27T01:54:40.483Z,101462.4921875
2023-02-27T01:55:40.494Z,101461.6796875
2023-02-27T01:56:40.909Z,101463.94140625
2023-02-27T01:57:42.900Z,101461.23046875
2023-02-27T01:58:40.585Z,101462.50390625
2023-02-27T01:59:40.594Z,101460.24609375
2023-02-27T02:00:40.779Z,101460.29296875
2023-02-27T02:01:40.992Z,101458.87890625
2023-02-27T02:02:40.640Z,101458
2023-02-27T02:03:40.646Z,101463.83984375
2023-02-27T02:04:40.627Z,101457.73046875
2023-02-27T02:05:40.568Z,101458.01171875
2023-02-27T02:06:40.910Z,101457.32421875
2023-02-27T02:07:40.596Z,101451.6953125
2023-02-27T02:08:42.877Z,101455.51953125
2023-02-27T02:09:40.455Z,101452.26171875
2023-02-27T02:10:40.630Z,101451.73046875
2023-02-27T02:11:40.911Z,101451.55078125
2023-02-27T02:12:40.602Z,101453.69140625
2023-02-27T02:13:40.580Z,101454.203125
2023-02-27T02:14:40.543Z,101456.19921875
2023-02-27T02:15:40.627Z,101458.94921875
2023-02-27T02:16:40.971Z,101454.41796875
2023-02-27T02:17:40.559Z,101452.15625
2023-02-27T02:18:40.640Z,101452.32421875
2023-02-27T02:19:42.951Z,101451.19140625
2023-02-27T02:20:40.537Z,101453.0859375
2023-02-27T02:21:40.899Z,101453.19140625
2023-02-27T02:22:40.509Z,101451.83203125
2023-02-27T02:23:40.619Z,101450.1328125
2023-02-27T02:24:40.491Z,101452.2734375
2023-02-27T02:25:40.632Z,101452.44921875
2023-02-27T02:26:40.920Z,101457.609375
2023-02-27T02:27:40.634Z,101454.890625
2023-02-27T02:28:40.629Z,101453.359375
2023-02-27T02:29:40.611Z,101455.46875
2023-02-27T02:30:43.078Z,101456.9375
2023-02-27T02:31:41.059Z,101453.66015625
2023-02-27T02:32:40.513Z,101461.85546875
2023-02-27T02:33:40.586Z,101456.8828125
2023-02-27T02:34:40.512Z,101456.43359375
2023-02-27T02:35:40.633Z,101460.50390625
2023-02-27T02:36:40.917Z,101459.7734375
2023-02-27T02:37:40.590Z,101458.07421875
2023-02-27T02:38:40.504Z,101465.89453125
2023-02-27T02:39:40.608Z,101457.39453125
2023-02-27T02:40:40.503Z,101462.75390625
2023-02-27T02:41:45.315Z,101460.890625
2023-02-27T02:42:40.507Z,101465.765625
2023-02-27T02:43:40.580Z,101464.16015625
2023-02-27T02:44:40.621Z,101460.9296875
2023-02-27T02:45:40.527Z,101463.6015625
2023-02-27T02:46:40.907Z,101465.40625
2023-02-27T02:47:40.628Z,101464.8203125
2023-02-27T02:48:40.623Z,101466.68359375
2023-02-27T02:49:40.509Z,101467.53515625
2023-02-27T02:50:40.601Z,101464.7734375
2023-02-27T02:51:40.900Z,101466.0703125
2023-02-27T02:52:42.974Z,101465.30859375
2023-02-27T02:53:40.514Z,101463.63671875
2023-02-27T02:54:40.593Z,101466.84765625
2023-02-27T02:55:40.635Z,101464.30859375
2023-02-27T02:56:40.912Z,101465.77734375
2023-02-27T02:57:40.588Z,101467.34765625
2023-02-27T02:58:40.490Z,101465.41796875
2023-02-27T02:59:40.622Z,101468.1328125
2023-02-27T03:00:40.500Z,101467.0078125
2023-02-27T03:01:40.655Z,101473.1171875
2023-02-27T03:02:40.573Z,101468.01953125
2023-02-27T03:03:42.939Z,101471.62109375
2023-02-27T03:04:40.561Z,101473.765625
2023-02-27T03:05:40.633Z,101471.76953125
2023-02-27T03:06:40.907Z,101471.6484375
2023-02-27T03:07:40.685Z,101466.546875
2023-02-27T03:08:40.617Z,101468.84765625
2023-02-27T03:09:40.534Z,101466.83984375
2023-02-27T03:10:40.602Z,101469.32421875
2023-02-27T03:11:40.643Z,101472.14453125
2023-02-27T03:12:40.521Z,101472.9453125
2023-02-27T03:13:40.634Z,101474.91796875
2023-02-27T03:14:42.818Z,101474.3125
2023-02-27T03:15:40.705Z,101478.7890625
2023-02-27T03:16:40.920Z,101476.171875
2023-02-27T03:17:40.500Z,101479.9765625
2023-02-27T03:18:40.642Z,101475.51171875
2023-02-27T03:19:40.496Z,101481.03515625
2023-02-27T03:20:40.516Z,101477.12890625
2023-02-27T03:21:40.908Z,101478.82421875
2023-02-27T03:22:40.563Z,101477.890625
2023-02-27T03:23:40.548Z,101476.47265625
2023-02-27T03:24:40.619Z,101479.4453125
2023-02-27T03:25:42.870Z,101473.36328125
2023-02-27T03:26:40.641Z,101473.35546875
2023-02-27T03:27:40.644Z,101472.25
2023-02-27T03:28:40.567Z,101472.578125
2023-02-27T03:29:40.499Z,101472.16015625
2023-02-27T03:30:40.769Z,101476.2109375
2023-02-27T03:31:40.968Z,101477.58984375
2023-02-27T03:32:40.567Z,101476.4375
2023-02-27T03:33:40.507Z,101475.1171875
2023-02-27T03:34:40.583Z,101482.8828125
2023-02-27T03:35:40.556Z,101478.53515625
2023-02-27T03:36:45.315Z,101477.5703125
2023-02-27T03:37:40.554Z,101478.71484375
2023-02-27T03:38:40.523Z,101484.33984375
2023-02-27T03:39:40.591Z,101484.30859375
2023-02-27T03:40:40.501Z,101479.81640625
2023-02-27T03:41:40.980Z,101484.1953125
2023-02-27T03:42:40.571Z,101482.046875
2023-02-27T03:43:40.549Z,101482.9609375
2023-02-27T03:44:40.495Z,101483.453125
2023-02-27T03:45:40.612Z,101482.42578125
2023-02-27T03:46:40.934Z,101483.6875
2023-02-27T03:47:42.851Z,101486.140625
2023-02-27T03:48:40.567Z,101479.03515625
2023-02-27T03:49:40.622Z,101490.4375
2023-02-27T03:50:40.626Z,101492.45703125
2023-02-27T03:51:40.903Z,101489.7734375
2023-02-27T03:52:40.635Z,101493.29296875
2023-02-27T03:53:40.502Z,101492.80078125
2023-02-27T03:54:40.615Z,101495.453125
2023-02-27T03:55:40.514Z,101493.9609375
2023-02-27T03:56:40.919Z,101497.33203125
2023-02-27T03:57:40.502Z,101497.82421875
2023-02-27T03:58:42.893Z,101495.734375
2023-02-27T03:59:40.496Z,101499.12890625
2023-02-27T04:00:40.603Z,101500.2890625
2023-02-27T04:01:40.899Z,101502.9296875
2023-02-27T04:02:40.569Z,101505.015625
2023-02-27T04:03:40.630Z,101503.08203125
2023-02-27T04:04:40.627Z,101502.8671875
2023-02-27T04:05:40.577Z,101501.44921875
2023-02-27T04:06:40.846Z,101499.68359375
2023-02-27T04:07:40.600Z,101503.19921875
2023-02-27T04:08:40.618Z,101504.75390625
2023-02-27T04:09:42.872Z,101502.4453125
2023-02-27T04:10:40.631Z,101503.55859375
2023-02-27T04:11:40.994Z,101506.99609375
2023-02-27T04:12:40.495Z,101508.3671875
2023-02-27T04:13:40.626Z,101508.68359375
2023-02-27T04:14:40.567Z,101508.2109375
2023-02-27T04:15:40.604Z,101514.83203125
2023-02-27T04:16:40.847Z,101511.78515625
2023-02-27T04:17:40.502Z,101516.6328125
2023-02-27T04:18:40.612Z,101517.75390625
2023-02-27T04:19:40.601Z,101515.19140625
2023-02-27T04:20:42.974Z,101515.8984375
2023-02-27T04:21:40.846Z,101519.265625
2023-02-27T04:22:40.614Z,101518.43359375
2023-02-27T04:23:40.618Z,101516.71484375
2023-02-27T04:24:40.602Z,101511.0078125
2023-02-27T04:25:40.490Z,101515.4296875
2023-02-27T04:26:40.848Z,101514.71875
2023-02-27T04:27:40.519Z,101515.5078125
2023-02-27T04:28:40.595Z,101513.87890625
2023-02-27T04:29:40.594Z,101513.76953125
2023-02-27T04:30:40.613Z,101514.78125
2023-02-27T04:31:45.497Z,101517.49609375
2023-02-27T04:32:40.657Z,101520.25
2023-02-27T04:33:40.507Z,101520.5703125
2023-02-27T04:34:40.631Z,101522.09765625
2023-02-27T04:35:40.627Z,101517.9296875
2023-02-27T04:36:40.860Z,101521.56640625
2023-02-27T04:37:40.540Z,101524.5390625
2023-02-27T04:38:40.498Z,101522.7890625
2023-02-27T04:39:40.559Z,101524.9453125
2023-02-27T04:40:40.605Z,101521.13671875
2023-02-27T04:41:40.862Z,101523.859375
2023-02-27T04:42:42.950Z,101525.25390625
2023-02-27T04:43:40.574Z,101526.03515625
2023-02-27T04:44:40.618Z,101526.59765625
2023-02-27T04:45:40.601Z,101526.59765625
2023-02-27T04:46:40.872Z,101527.74609375
2023-02-27T04:47:40.660Z,101529.30078125
2023-02-27T04:48:40.645Z,101532.4296875
2023-02-27T04:49:40.570Z,101534.65234375
2023-02-27T04:50:40.493Z,101537.08203125
2023-02-27T04:51:40.855Z,101533.890625
2023-02-27T04:52:40.519Z,101533.24609375
2023-02-27T04:53:42.896Z,101533.359375
2023-02-27T04:54:40.634Z,101539.16796875
2023-02-27T04:55:40.604Z,101536.34375
2023-02-27T04:56:40.856Z,101533.51953125
2023-02-27T04:57:40.582Z,101533.54296875
2023-02-27T04:58:40.561Z,101539.78125
2023-02-27T04:59:40.598Z,101537.73828125
2023-02-27T05:00:40.498Z,101538.35546875
2023-02-27T05:01:40.555Z,101537.56640625
2023-02-27T05:02:40.699Z,101536.875
2023-02-27T05:03:40.622Z,101540.12890625
2023-02-27T05:04:42.921Z,101534.82421875
2023-02-27T05:05:40.619Z,101535.19140625
2023-02-27T05:06:40.860Z,101538.5703125
2023-02-27T05:07:40.497Z,101540.1796875
2023-02-27T05:08:40.606Z,101540.80078125
2023-02-27T05:09:40.556Z,101537.1171875
2023-02-27T05:10:40.603Z,101540.49609375
2023-02-27T05:11:41.364Z,101537.64453125
2023-02-27T05:12:40.605Z,101535.57421875
2023-02-27T05:13:40.508Z,101537.32421875
2023-02-27T05:14:40.526Z,101539.8984375
2023-02-27T05:15:43.005Z,101540.4296875
2023-02-27T05:16:40.883Z,101540.37109375
2023-02-27T05:17:41.004Z,101549.11328125
2023-02-27T05:18:40.584Z,101544.57421875
2023-02-27T05:19:40.617Z,101545.29296875
2023-02-27T05:20:40.639Z,101546.28125
2023-02-27T05:21:40.620Z,101548.140625
2023-02-27T05:22:40.851Z,101551.78125
2023-02-27T05:23:40.627Z,101556.73828125
2023-02-27T05:24:40.592Z,101555.97265625
2023-02-27T05:25:40.518Z,101557.140625
2023-02-27T05:26:42.891Z,101560.81640625
2023-02-27T05:27:40.849Z,101562.16015625
2023-02-27T05:28:40.642Z,101566.05078125
2023-02-27T05:29:40.626Z,101562.9453125
2023-02-27T05:30:40.634Z,101562.37109375
2023-02-27T05:31:40.950Z,101562.86328125
2023-02-27T05:32:40.916Z,101560.28515625
2023-02-27T05:33:40.585Z,101570.703125
2023-02-27T05:34:40.601Z,101565.08203125
2023-02-27T05:35:40.691Z,101569.546875
2023-02-27T05:36:40.627Z,101572.01171875
2023-02-27T05:37:45.351Z,101570.01953125
2023-02-27T05:38:40.636Z,101572.58203125
2023-02-27T05:39:40.632Z,101578.5234375
2023-02-27T05:40:40.502Z,101577.80078125
2023-02-27T05:41:40.563Z,101580.1796875
2023-02-27T05:42:40.854Z,101581.31640625
2023-02-27T05:43:40.604Z,101585.7421875
2023-02-27T05:44:40.618Z,101586.08203125
2023-02-27T05:45:40.644Z,101586.53125
2023-02-27T05:46:40.855Z,101585.94921875
2023-02-27T05:47:40.918Z,101585.11328125
2023-02-27T05:48:42.967Z,101585.83203125
2023-02-27T05:49:40.611Z,101587.0859375
2023-02-27T05:50:40.560Z,101585.8359375
2023-02-27T05:51:40.840Z,101584.15234375
2023-02-27T05:52:40.853Z,101585.2890625
2023-02-27T05:53:40.606Z,101582.875
2023-02-27T05:54:40.576Z,101584.6484375
2023-02-27T05:55:40.514Z,101588.0625
2023-02-27T05:56:40.622Z,101586.63671875
2023-02-27T05:57:40.890Z,101586.6484375
2023-02-27T05:58:40.597Z,101582.78125
2023-02-27T05:59:42.903Z,101586.3828125
2023-02-27T06:00:40.627Z,101588.109375
2023-02-27T06:01:40.879Z,101589.625
2023-02-27T06:02:40.856Z,101585.1875
2023-02-27T06:03:40.697Z,101585.8046875
2023-02-27T06:04:40.619Z,101586.76953125
2023-02-27T06:05:40.508Z,101587.921875
2023-02-27T06:06:40.541Z,101590.9375
2023-02-27T06:07:40.845Z,101587.73828125
2023-02-27T06:08:40.500Z,101590.65625
2023-02-27T06:09:40.531Z,101594.15234375
2023-02-27T06:10:42.900Z,101595.16015625
2023-02-27T06:11:40.625Z,101595.3515625
2023-02-27T06:12:40.858Z,101598.5234375
2023-02-27T06:13:42.084Z,101597.46484375
2023-02-27T06:14:40.537Z,101597.09765625
2023-02-27T06:15:40.584Z,101598.484375
2023-02-27T06:16:40.883Z,101596.79296875
2023-02-27T06:17:41.037Z,101603.20703125
2023-02-27T06:18:40.557Z,101602.7890625
2023-02-27T06:19:40.497Z,101606.99609375
2023-02-27T06:20:40.518Z,101599.890625
2023-02-27T06:21:42.953Z,101608.76171875
2023-02-27T06:22:40.858Z,101604.19140625
2023-02-27T06:23:40.575Z,101607.1015625
2023-02-27T06:24:40.620Z,101611.99609375
2023-02-27T06:25:40.587Z,101610.46875
2023-02-27T06:26:40.615Z,101611.7890625
2023-02-27T06:27:40.849Z,101608.04296875
2023-02-27T06:28:40.582Z,101607.5390625
2023-02-27T06:29:40.627Z,101612.4375
2023-02-27T06:30:40.583Z,101610.80859375
2023-02-27T06:31:40.920Z,101610.6953125
2023-02-27T06:32:42.977Z,101612.55859375
2023-02-27T06:33:40.508Z,101613.6171875
2023-02-27T06:34:40.603Z,101615.875
2023-02-27T06:35:40.543Z,101618.078125
2023-02-27T06:36:40.645Z,101615.6953125
2023-02-27T06:37:40.868Z,101616.84375
2023-02-27T06:38:40.637Z,101620.9609375
2023-02-27T06:39:40.565Z,101624.3671875
2023-02-27T06:40:40.508Z,101624.83203125
2023-02-27T06:41:40.558Z,101626.57421875
2023-02-27T06:42:40.848Z,101619.53125
2023-02-27T06:43:42.968Z,101618.5546875
2023-02-27T06:44:40.494Z,101617.00390625
2023-02-27T06:45:40.562Z,101614.75390625
2023-02-27T06:46:40.887Z,101619.73046875
2023-02-27T06:47:40.850Z,101620.60546875
2023-02-27T06:48:40.598Z,101617.0625
2023-02-27T06:49:40.625Z,101619.0234375
2023-02-27T06:50:40.568Z,101617.0859375
2023-02-27T06:51:40.526Z,101618.30859375
2023-02-27T06:52:40.850Z,101616.56640625
2023-02-27T06:53:40.486Z,101618.37890625
2023-02-27T06:54:42.896Z,101615.5390625
2023-02-27T06:55:40.497Z,101617.61328125
2023-02-27T06:56:40.618Z,101619.5625
2023-02-27T06:57:40.919Z,101619.99609375
2023-02-27T06:58:40.616Z,101620.23046875
2023-02-27T06:59:40.590Z,101626.57421875
2023-02-27T07:00:40.555Z,101622.95703125
2023-02-27T07:01:40.573Z,101625.6953125
2023-02-27T07:02:40.848Z,101623.40234375
2023-02-27T07:03:40.588Z,101628.06640625
2023-02-27T07:04:40.628Z,101626.81640625
2023-02-27T07:05:42.908Z,101624.65625
2023-02-27T07:07:32.971Z,101626.1640625
2023-02-27T07:07:40.953Z,101624.88671875
2023-02-27T07:09:01.085Z,101625.26953125
2023-02-27T07:09:40.519Z,101624.9453125
2023-02-27T07:10:40.585Z,101627.06640625
2023-02-27T07:11:40.506Z,101626.1640625
2023-02-27T07:12:40.852Z,101630.09375
2023-02-27T07:13:40.495Z,101627.67578125
2023-02-27T07:14:40.482Z,101625.18359375
2023-02-27T07:15:40.579Z,101628.51953125
2023-02-27T07:16:45.348Z,101626.48828125
2023-02-27T07:17:41.002Z,101622.74609375
2023-02-27T07:18:40.483Z,101627.55859375
2023-02-27T07:19:40.595Z,101627.1796875
2023-02-27T07:20:40.588Z,101630.546875
2023-02-27T07:21:40.504Z,101623.6484375
2023-02-27T07:22:40.849Z,101627.19921875
2023-02-27T07:23:40.478Z,101625.2578125
2023-02-27T07:24:40.592Z,101624.1171875
2023-02-27T07:25:40.497Z,101624.984375
2023-02-27T07:26:40.545Z,101625.1484375
2023-02-27T07:27:45.359Z,101624.390625
2023-02-27T07:28:40.634Z,101628.38671875
2023-02-27T07:29:40.628Z,101629.28515625
2023-02-27T07:30:40.494Z,101624.60546875
2023-02-27T07:31:40.854Z,101625.6796875
2023-02-27T07:32:40.854Z,101627.59375
2023-02-27T07:33:40.569Z,101622.3515625
2023-02-27T07:34:40.621Z,101627.76171875
2023-02-27T07:35:40.667Z,101623.484375
2023-02-27T07:36:40.509Z,101627.171875
2023-02-27T07:37:40.850Z,101627.03125
2023-02-27T07:38:42.987Z,101630.94921875
2023-02-27T07:39:40.566Z,101628.2734375
2023-02-27T07:40:40.631Z,101628.33984375
2023-02-27T07:41:40.484Z,101626.23828125
2023-02-27T07:42:40.594Z,101629.8046875
2023-02-27T07:43:40.590Z,101631.2734375
2023-02-27T07:44:40.558Z,101629.2890625
2023-02-27T07:45:40.564Z,101633.65234375
2023-02-27T07:46:40.908Z,101632.01171875
2023-02-27T07:47:40.902Z,101633.86328125
2023-02-27T07:48:40.557Z,101637.109375
2023-02-27T07:49:42.891Z,101631.421875
2023-02-27T07:50:40.569Z,101638.59765625
2023-02-27T07:51:40.594Z,101644.5625
2023-02-27T07:52:40.858Z,101641.921875
2023-02-27T07:53:40.515Z,101646.42578125
2023-02-27T07:54:40.593Z,101649.3359375
2023-02-27T07:55:40.594Z,101644.296875
2023-02-27T07:56:40.630Z,101642.63671875
2023-02-27T07:57:40.884Z,101645.015625
2023-02-27T07:58:40.493Z,101646.0703125
2023-02-27T07:59:40.587Z,101646.1875
2023-02-27T08:00:42.946Z,101646.0078125
2023-02-27T08:01:40.861Z,101646.515625
2023-02-27T08:02:40.965Z,101644.625
2023-02-27T08:03:40.538Z,101646.19921875
2023-02-27T08:04:40.572Z,101648.38671875
2023-02-27T08:05:40.534Z,101658.24609375
2023-02-27T08:06:40.575Z,101654.49609375
2023-02-27T08:07:40.862Z,101649.17578125
2023-02-27T08:08:40.623Z,101650.63671875
2023-02-27T08:09:40.532Z,101649.55859375
2023-02-27T08:10:40.572Z,101649.328125
2023-02-27T08:11:42.980Z,101650.31640625
2023-02-27T08:12:40.864Z,101644.078125
2023-02-27T08:14:00.444Z,101647.5546875
2023-02-27T08:14:40.487Z,101651.44140625
2023-02-27T08:15:40.521Z,101656.6953125
2023-02-27T08:16:40.981Z,101646.7890625
2023-02-27T08:17:40.982Z,101652.68359375
2023-02-27T08:18:40.547Z,101652.98046875
2023-02-27T08:19:40.492Z,101649.359375
2023-02-27T08:20:40.576Z,101657.421875
2023-02-27T08:21:40.626Z,101652.8359375
2023-02-27T08:22:45.427Z,101652.04296875
2023-02-27T08:23:42.578Z,101655.08984375
2023-02-27T08:24:40.618Z,101653.53125
2023-02-27T08:25:40.527Z,101654.08203125
2023-02-27T08:26:40.560Z,101654.0859375
2023-02-27T08:27:40.856Z,101658.03515625
2023-02-27T08:28:40.563Z,101656.2890625
2023-02-27T08:29:40.508Z,101655.44921875
2023-02-27T08:30:40.536Z,101658.1796875
2023-02-27T08:31:40.902Z,101658.4609375
2023-02-27T08:32:40.853Z,101656.53515625
2023-02-27T08:33:42.979Z,101651.78515625
2023-02-27T08:34:40.605Z,101654.65234375
2023-02-27T08:35:40.597Z,101656.19140625
2023-02-27T08:36:40.498Z,101657.6015625
2023-02-27T08:37:40.953Z,101655.140625
2023-02-27T08:38:40.520Z,101654.9375
2023-02-27T08:39:40.631Z,101660.265625
2023-02-27T08:40:40.519Z,101659.6171875
2023-02-27T08:41:40.630Z,101661.79296875
2023-02-27T08:42:40.614Z,101661.9140625
2023-02-27T08:43:40.609Z,101663.28125
2023-02-27T08:44:42.856Z,101658.97265625
2023-02-27T08:45:40.620Z,101665.17578125
2023-02-27T08:46:40.855Z,101664.21484375
2023-02-27T08:47:40.982Z,101664.6953125
2023-02-27T08:48:40.544Z,101670.2578125
2023-02-27T08:49:40.618Z,101655.9453125
2023-02-27T08:50:40.638Z,101664.41015625
2023-02-27T08:51:40.564Z,101653.48046875
2023-02-27T08:52:40.844Z,101662.30078125
2023-02-27T08:53:40.577Z,101665.48828125
2023-02-27T08:54:40.646Z,101661.29296875
2023-02-27T08:55:42.969Z,101658.09375
2023-02-27T08:56:40.612Z,101652.17578125
2023-02-27T08:57:40.915Z,101653.05859375
2023-02-27T08:58:40.522Z,101650.53515625
2023-02-27T08:59:40.667Z,101655.39453125
2023-02-27T09:00:40.582Z,101651.43359375
2023-02-27T09:01:40.862Z,101646.6328125
2023-02-27T09:02:40.890Z,101646.390625
2023-02-27T09:03:40.560Z,101657.88671875
2023-02-27T09:04:40.510Z,101654.69921875
2023-02-27T09:05:40.499Z,101649.12109375
2023-02-27T09:06:42.931Z,101656.125
2023-02-27T09:07:40.846Z,101668.83203125
2023-02-27T09:08:40.504Z,101656.421875
2023-02-27T09:09:40.525Z,101654.875
2023-02-27T09:10:40.518Z,101653.25
2023-02-27T09:11:40.539Z,101650.86328125
2023-02-27T09:12:40.848Z,101660.89453125
2023-02-27T09:13:40.592Z,101646.8984375
2023-02-27T09:14:40.600Z,101650.9609375
2023-02-27T09:15:40.520Z,101649.5234375
2023-02-27T09:16:40.866Z,101659.9140625
2023-02-27T09:17:42.973Z,101649.61328125
2023-02-27T09:18:40.586Z,101648.21484375
2023-02-27T09:19:40.553Z,101659.20703125
2023-02-27T09:20:40.603Z,101657.65234375
2023-02-27T09:21:40.506Z,101663.046875
2023-02-27T09:22:40.860Z,101657.234375
2023-02-27T09:23:40.631Z,101663.80859375
2023-02-27T09:24:40.492Z,101662.5703125
2023-02-27T09:25:40.629Z,101672.6796875
2023-02-27T09:26:45.901Z,101663.49609375
2023-02-27T09:27:40.924Z,101658.0078125
2023-02-27T09:28:42.943Z,101657
2023-02-27T09:29:40.612Z,101649.42578125
2023-02-27T09:30:40.601Z,101651.26953125
2023-02-27T09:31:40.904Z,101656.953125
2023-02-27T09:32:40.935Z,101659.453125
2023-02-27T09:33:40.491Z,101653.69140625
2023-02-27T09:34:40.622Z,101652.67578125
2023-02-27T09:35:40.593Z,101660.8359375
2023-02-27T09:36:40.503Z,101651.3125
2023-02-27T09:37:40.845Z,101664.39453125
2023-02-27T09:38:41.398Z,101655.0546875
2023-02-27T09:39:44.069Z,101655.59765625
2023-02-27T09:40:40.593Z,101666.109375
2023-02-27T09:41:40.529Z,101655.71875
2023-02-27T09:42:40.863Z,101657.0859375
2023-02-27T09:43:40.510Z,101656.30859375
2023-02-27T09:44:46.760Z,101659.8046875
2023-02-27T09:45:40.668Z,101658.09765625
2023-02-27T09:46:40.499Z,101668.46875
2023-02-27T09:47:40.949Z,101666.12890625
2023-02-27T09:48:40.586Z,101661.8046875
2023-02-27T09:49:40.631Z,101657.4296875
2023-02-27T09:50:42.842Z,101652.28515625
2023-02-27T09:51:40.605Z,101656.75
2023-02-27T09:52:40.850Z,101666.87890625
2023-02-27T09:53:40.625Z,101664.546875
2023-02-27T09:54:41.505Z,101674.48828125
2023-02-27T09:55:40.613Z,101671.26171875
2023-02-27T09:56:40.546Z,101672.51953125
2023-02-27T09:57:40.890Z,101678.87109375